Time;durP1;ratioP1;P1;durP2;ratioP2;P2;SDS_P1;SDS_P2;PMS_P1;PMS_P2;Temp;Humidity;BMP_temperature;BMP_pressure;BME280_temperature;BME280_humidity;BME280_pressure;Samples;Min_cycle;Max_cycle;Signal;HPM_P1;HPM_P2
2022/12/10 00:01:20;;;;;;;20.90;9.80;;;3.00;99.90;;;2.81;88.24;99587.81;4982926;28;20206;-68
2022/12/10 00:03:47;;;;;;;18.05;9.95;;;3.00;99.90;;;2.89;87.69;99590.81;4990089;28;20211;-69
2022/12/10 00:06:21;;;;;;;17.00;9.57;;;2.90;99.90;;;2.92;87.35;99594.94;4991430;28;20208;-69
2022/12/10 00:08:48;;;;;;;16.40;8.23;;;3.00;99.90;;;2.86;87.72;99595.28;4991451;28;20215;-69
2022/12/10 00:11:18;;;;;;;17.48;10.05;;;2.90;99.90;;;2.91;87.35;99599.28;4991611;28;20199;-68
2022/12/10 00:13:46;;;;;;;18.13;7.60;;;2.90;99.90;;;2.77;87.58;99599.22;4991681;28;20223;-70
2022/12/10 00:16:16;;;;;;;16.63;9.90;;;2.90;99.90;;;2.68;88.63;99602.34;4990713;28;20363;-68
2022/12/10 00:18:44;;;;;;;16.55;8.80;;;2.80;99.90;;;2.77;87.98;99599.22;4974788;28;20235;-69
2022/12/10 00:21:15;;;;;;;19.80;12.00;;;2.90;99.90;;;2.56;88.81;99605.56;4988266;28;20195;-69
2022/12/10 00:23:42;;;;;;;16.25;8.35;;;2.80;99.90;;;2.85;87.66;99609.94;4992448;28;20258;-68
2022/12/10 00:26:16;;;;;;;16.70;8.35;;;2.80;99.90;;;2.85;87.65;99599.63;4991502;28;20258;-67
2022/12/10 00:28:44;;;;;;;14.15;7.85;;;2.90;99.90;;;2.78;88.04;99603.47;4991605;28;20661;-69
2022/12/10 00:31:21;;;;;;;17.80;7.93;;;2.80;99.90;;;2.76;88.25;99602.72;4991768;28;20222;-68
2022/12/10 00:33:48;;;;;;;18.02;9.60;;;2.80;99.90;;;2.88;87.50;99596.03;4985850;28;20588;-68
2022/12/10 00:36:21;;;;;;;16.00;8.30;;;2.90;99.90;;;3.00;86.72;99598.75;4973739;28;20219;-68
2022/12/10 00:38:49;;;;;;;13.02;5.80;;;2.90;99.90;;;2.84;87.33;99597.13;4996322;28;20250;-68
2022/12/10 00:41:16;;;;;;;18.73;9.60;;;2.90;99.90;;;2.72;88.00;99597.84;4987959;28;20196;-68
2022/12/10 00:43:44;;;;;;;16.75;7.22;;;2.90;99.90;;;2.79;88.32;99594.00;4990950;28;20289;-69
2022/12/10 00:46:13;;;;;;;16.15;8.63;;;2.90;99.90;;;2.75;88.23;99595.91;4991431;28;20210;-68
2022/12/10 00:48:41;;;;;;;16.95;7.10;;;2.90;99.90;;;2.81;87.89;99602.47;4990758;28;20211;-68
2022/12/10 00:51:13;;;;;;;13.10;7.25;;;2.80;99.90;;;2.83;87.92;99604.03;4992681;28;20207;-68
2022/12/10 00:53:42;;;;;;;17.00;10.75;;;2.90;99.90;;;2.70;88.69;99602.25;4991385;28;20231;-68
2022/12/10 00:56:12;;;;;;;17.00;8.30;;;2.80;99.90;;;2.69;87.98;99598.81;4987768;28;20208;-70
2022/12/10 00:58:39;;;;;;;20.98;10.50;;;2.80;99.90;;;2.65;88.16;99599.91;4991331;28;20281;-68
2022/12/10 01:01:11;;;;;;;13.10;6.97;;;2.80;99.90;;;2.75;87.79;99602.78;4986138;28;20612;-65
2022/12/10 01:03:39;;;;;;;16.95;8.50;;;2.80;99.90;;;2.77;88.11;99606.94;4986118;28;20254;-68
2022/12/10 01:06:25;;;;;;;12.90;6.90;;;2.80;99.90;;;2.67;88.45;99607.56;4990494;28;20227;-68
2022/12/10 01:08:56;;;;;;;19.33;8.57;;;2.80;99.90;;;2.64;89.06;99607.75;4973012;28;20610;-68
2022/12/10 01:11:28;;;;;;;14.52;8.55;;;2.70;99.90;;;2.68;88.14;99612.63;4986704;28;20699;-68
2022/12/10 01:13:56;;;;;;;18.98;10.15;;;2.80;99.90;;;2.66;88.13;99613.63;4986527;28;20210;-67
2022/12/10 01:16:24;;;;;;;15.40;8.23;;;2.80;99.90;;;2.71;87.77;99615.03;4979339;28;20215;-69
2022/12/10 01:18:56;;;;;;;21.77;10.40;;;2.80;99.90;;;2.73;87.81;99622.66;4972835;28;20263;-69
2022/12/10 01:21:26;;;;;;;13.88;7.25;;;2.80;99.90;;;2.61;89.17;99623.34;4985251;28;20200;-69
2022/12/10 01:23:55;;;;;;;18.45;9.35;;;2.70;99.90;;;2.67;88.57;99623.84;4987845;28;20207;-68
2022/12/10 01:26:26;;;;;;;16.98;8.75;;;2.70;99.90;;;2.78;87.79;99631.81;4983202;28;20196;-68
2022/12/10 01:28:54;;;;;;;19.75;9.70;;;2.70;99.90;;;2.71;88.07;99627.06;4991076;28;20311;-67
2022/12/10 01:31:28;;;;;;;16.15;6.63;;;2.70;99.90;;;2.58;88.70;99628.69;4972494;28;20212;-69
2022/12/10 01:33:57;;;;;;;17.23;8.98;;;2.70;99.90;;;2.62;88.37;99628.41;4977173;28;20668;-69
2022/12/10 01:36:33;;;;;;;11.23;5.10;;;2.70;99.90;;;2.58;89.58;99639.78;4991848;28;20204;-69
2022/12/10 01:39:03;;;;;;;15.85;8.68;;;2.60;99.90;;;2.68;88.16;99640.97;4986057;28;20227;-68
2022/12/10 01:41:37;;;;;;;19.30;10.88;;;2.70;99.90;;;2.55;89.35;99642.56;4985766;28;20196;-67
2022/12/10 01:44:10;;;;;;;18.77;10.43;;;2.70;99.90;;;2.60;89.18;99634.56;4986973;28;20208;-67
2022/12/10 01:46:46;;;;;;;17.65;9.90;;;2.70;99.90;;;2.69;88.18;99637.47;4983537;28;20203;-69
2022/12/10 01:49:19;;;;;;;17.35;8.20;;;2.70;99.90;;;2.70;87.83;99641.72;4981273;28;20231;-68
2022/12/10 01:51:51;;;;;;;15.18;6.95;;;2.70;99.90;;;2.73;87.62;99633.78;4972993;28;20209;-67
2022/12/10 01:54:29;;;;;;;18.67;9.00;;;2.70;99.90;;;2.61;88.35;99642.22;4982752;28;20694;-67
2022/12/10 01:57:14;;;;;;;18.13;10.60;;;2.70;99.90;;;2.65;88.47;99651.44;4990781;28;20207;-68
2022/12/10 01:59:42;;;;;;;6.53;4.22;;;2.70;99.90;;;2.73;87.98;99648.41;4987424;28;20228;-69
2022/12/10 02:02:24;;;;;;;20.50;11.75;;;2.70;99.90;;;2.60;87.84;99650.84;4971253;28;20208;-68
2022/12/10 02:05:32;;;;;;;18.65;10.27;;;2.70;99.90;;;2.61;88.22;99649.94;4983797;28;20208;-69
2022/12/10 02:08:19;;;;;;;19.70;10.55;;;2.70;99.90;;;2.36;89.51;99657.34;4967483;28;20204;-68
2022/12/10 02:11:16;;;;;;;20.23;10.45;;;2.60;99.90;;;2.60;89.23;99645.69;4988258;28;20226;-68
2022/12/10 02:13:58;;;;;;;13.07;7.18;;;2.60;99.90;;;2.59;88.75;99648.34;4983453;28;20204;-67
2022/12/10 02:16:38;;;;;;;18.15;7.43;;;2.70;99.90;;;2.53;88.39;99640.97;4970964;28;20618;-68
2022/12/10 02:19:33;;;;;;;22.85;12.52;;;2.60;99.90;;;2.38;89.84;99652.94;4969957;28;20230;-70
2022/12/10 02:22:02;;;;;;;20.75;11.20;;;2.60;99.90;;;2.46;89.65;99652.50;4980646;28;20739;-68
2022/12/10 02:24:34;;;;;;;16.85;9.10;;;2.50;99.90;;;2.52;89.41;99653.00;4972659;28;20203;-66
2022/12/10 02:27:22;;;;;;;19.58;11.20;;;2.60;99.90;;;2.47;89.62;99659.34;4972783;28;20200;-68
2022/12/10 02:29:51;;;;;;;18.38;9.18;;;2.50;99.90;;;2.47;89.47;99651.59;4965045;28;20239;-68
2022/12/10 02:32:26;;;;;;;22.48;13.88;;;2.60;99.90;;;2.46;89.14;99648.19;4992185;28;20208;-68
2022/12/10 02:35:00;;;;;;;20.10;9.18;;;2.60;99.90;;;2.44;88.89;99644.88;4992465;28;20207;-68
2022/12/10 02:37:48;;;;;;;22.50;11.40;;;2.60;99.90;;;2.45;88.75;99649.09;4989860;28;20207;-69
2022/12/10 02:40:22;;;;;;;19.50;10.82;;;2.50;99.90;;;2.46;88.83;99653.34;4994924;23;20236;-64
2022/12/10 02:42:51;;;;;;;17.13;7.82;;;2.50;99.90;;;2.42;88.88;99657.00;4992621;28;20281;-64
2022/12/10 02:45:22;;;;;;;22.40;12.10;;;2.50;99.90;;;2.29;89.50;99656.84;5007909;28;20203;-65
2022/12/10 02:47:54;;;;;;;14.48;7.80;;;2.50;99.90;;;2.36;89.59;99659.91;4992490;28;20213;-64
2022/12/10 02:50:21;;;;;;;17.95;9.57;;;2.50;99.90;;;2.30;89.86;99650.75;4993321;28;20231;-64
2022/12/10 02:52:49;;;;;;;22.67;10.40;;;2.40;99.90;;;2.42;88.70;99644.13;4970352;28;20201;-65
2022/12/10 02:55:19;;;;;;;20.45;10.60;;;2.50;99.90;;;2.44;89.09;99642.31;4960358;28;20201;-65
2022/12/10 02:58:10;;;;;;;20.85;11.00;;;2.50;99.90;;;2.31;89.23;99644.72;4957106;28;20240;-65
2022/12/10 03:01:08;;;;;;;18.80;10.20;;;2.50;99.90;;;2.36;89.54;99649.63;4960349;28;20228;-64
2022/12/10 03:03:49;;;;;;;23.13;11.10;;;2.50;99.90;;;2.36;89.02;99645.28;4969183;28;20681;-62
2022/12/10 03:06:54;;;;;;;17.67;9.15;;;2.50;99.90;;;2.39;88.98;99646.84;4961287;28;20816;-66
2022/12/10 03:10:25;;;;;;;19.73;9.60;;;2.50;99.90;;;2.38;89.45;99636.66;4956994;28;20212;-64
2022/12/10 03:12:59;;;;;;;11.77;5.15;;;2.50;99.90;;;2.38;88.99;99640.06;4888866;29;20203;-64
2022/12/10 03:15:30;;;;;;;15.68;6.78;;;2.50;99.90;;;2.38;88.86;99635.72;4952894;28;20638;-65
2022/12/10 03:18:01;;;;;;;18.25;9.95;;;2.50;99.90;;;2.41;88.50;99639.88;4965390;28;20513;-64
2022/12/10 03:20:32;;;;;;;20.90;11.68;;;2.50;99.90;;;2.20;89.05;99635.88;4952041;28;20479;-64
2022/12/10 03:23:00;;;;;;;21.42;10.45;;;2.40;99.90;;;2.22;89.83;99636.63;4953793;28;20248;-64
2022/12/10 03:25:29;;;;;;;19.60;10.38;;;2.40;99.90;;;2.27;88.86;99639.81;4963459;28;20204;-64
2022/12/10 03:27:59;;;;;;;20.95;11.40;;;2.40;99.90;;;2.24;89.09;99633.06;4972942;28;20208;-64
2022/12/10 03:30:26;;;;;;;15.05;7.97;;;2.30;99.90;;;2.18;88.99;99633.41;4987989;28;20243;-64
2022/12/10 03:32:53;;;;;;;17.55;9.77;;;2.30;99.90;;;2.38;88.27;99645.22;4978609;28;20300;-64
2022/12/10 03:35:22;;;;;;;20.25;9.93;;;2.40;99.90;;;2.27;88.31;99634.66;4977551;28;20728;-65
2022/12/10 03:37:50;;;;;;;18.17;9.30;;;2.40;99.90;;;2.27;88.79;99638.06;4969334;28;20215;-64
2022/12/10 03:40:22;;;;;;;16.90;9.15;;;2.40;99.90;;;2.24;89.09;99632.22;4960223;28;20239;-65
2022/12/10 03:42:49;;;;;;;19.65;10.57;;;2.40;99.90;;;2.13;89.52;99632.81;4954118;28;20216;-65
2022/12/10 03:45:16;;;;;;;20.13;7.07;;;2.30;99.90;;;2.24;88.06;99643.38;4970911;28;20274;-64
2022/12/10 03:47:43;;;;;;;14.15;7.47;;;2.30;99.90;;;2.08;89.07;99639.13;4968985;28;20209;-64
2022/12/10 03:50:11;;;;;;;15.80;8.60;;;2.30;99.90;;;2.19;88.35;99642.78;4966975;28;20278;-64
2022/12/10 03:52:38;;;;;;;19.92;11.43;;;2.30;99.90;;;2.17;88.66;99641.22;4953967;28;20241;-64
2022/12/10 03:55:06;;;;;;;20.20;9.98;;;2.40;99.90;;;2.23;87.99;99649.44;4943338;28;20236;-64
2022/12/10 03:57:34;;;;;;;18.55;10.32;;;2.30;99.90;;;2.27;87.88;99653.50;4959654;28;20702;-65
2022/12/10 04:00:02;;;;;;;19.98;11.43;;;2.30;99.90;;;2.02;89.04;99649.75;4962714;28;20658;-64
2022/12/10 04:02:29;;;;;;;19.50;12.68;;;2.20;99.90;;;2.03;88.78;99659.09;4944712;28;20200;-64
2022/12/10 04:04:56;;;;;;;21.88;11.68;;;2.20;99.90;;;2.13;88.45;99652.59;4969101;28;20557;-64
2022/12/10 04:07:22;;;;;;;19.45;10.35;;;2.30;99.90;;;2.06;88.98;99652.06;4971908;28;20633;-65
2022/12/10 04:09:49;;;;;;;18.00;9.95;;;2.20;99.90;;;2.04;88.84;99653.06;4966347;28;20223;-65
2022/12/10 04:12:16;;;;;;;17.92;8.05;;;2.20;99.90;;;2.09;88.97;99651.06;4971729;28;20204;-64
2022/12/10 04:17:28;;;;;;;16.63;8.10;;;2.20;99.90;;;2.08;88.67;99654.56;4971334;28;20210;-63
2022/12/10 04:19:55;;;;;;;16.95;10.60;;;2.20;99.90;;;2.14;88.35;99656.81;4964241;28;20276;-64
2022/12/10 04:27:57;;;;;;;17.95;11.85;;;2.30;99.90;;;2.13;87.95;99655.16;4966566;28;20209;-64
2022/12/10 04:30:24;;;;;;;16.40;10.82;;;2.30;99.90;;;2.08;88.39;99657.13;4963192;28;20241;-65
2022/12/10 04:32:51;;;;;;;15.10;7.50;;;2.20;99.90;;;2.16;87.33;99663.53;4971360;28;20205;-64
2022/12/10 04:35:18;;;;;;;17.92;10.27;;;2.20;99.90;;;2.03;88.42;99670.25;4954410;28;20213;-64
2022/12/10 04:37:45;;;;;;;16.73;10.45;;;2.20;99.90;;;2.06;88.40;99661.53;4959841;28;20207;-64
2022/12/10 04:40:12;;;;;;;16.67;7.43;;;2.20;99.90;;;1.98;88.39;99676.53;4959336;28;20238;-64
2022/12/10 04:42:38;;;;;;;17.45;9.80;;;2.10;99.90;;;1.95;88.66;99667.25;4953001;28;20212;-65
2022/12/10 04:45:06;;;;;;;19.10;11.25;;;2.10;99.90;;;1.87;88.73;99671.13;4959329;28;20278;-64
2022/12/10 04:47:33;;;;;;;14.90;6.95;;;2.10;99.90;;;1.85;89.01;99666.06;4971783;28;20642;-64
2022/12/10 04:49:59;;;;;;;17.50;8.88;;;2.10;99.90;;;1.94;88.25;99672.47;4960878;28;20223;-64
2022/12/10 04:52:26;;;;;;;14.40;7.25;;;2.10;99.90;;;1.93;88.95;99675.94;4965504;28;20676;-65
2022/12/10 04:54:53;;;;;;;14.35;7.45;;;2.00;99.90;;;1.95;88.66;99682.66;4951400;28;20228;-64
2022/12/10 04:57:20;;;;;;;17.63;10.18;;;2.10;99.90;;;2.04;88.04;99679.63;4960260;28;20204;-64
2022/12/10 04:59:47;;;;;;;18.40;9.90;;;2.20;99.90;;;2.16;86.88;99678.13;4959879;28;20265;-65
2022/12/10 05:02:14;;;;;;;16.77;9.93;;;2.20;99.90;;;2.06;88.03;99680.38;4967393;28;20611;-64
2022/12/10 05:04:41;;;;;;;16.95;8.57;;;2.20;99.90;;;1.99;87.98;99694.47;4987600;28;20216;-64
2022/12/10 05:07:08;;;;;;;14.27;9.20;;;2.20;99.90;;;2.09;87.37;99690.50;4968062;28;20197;-64
2022/12/10 05:09:35;;;;;;;11.15;6.85;;;2.20;99.90;;;2.09;86.79;99692.22;4958332;28;20235;-65
2022/12/10 05:12:01;;;;;;;14.18;7.65;;;2.20;99.90;;;2.02;87.20;99689.13;4951428;28;20587;-63
2022/12/10 05:14:28;;;;;;;17.20;9.60;;;2.10;99.90;;;1.95;87.87;99697.28;4963853;28;20211;-65
2022/12/10 05:16:55;;;;;;;14.00;7.32;;;2.10;99.90;;;2.04;87.21;99700.22;4971428;28;20216;-64
2022/12/10 05:19:23;;;;;;;12.10;6.78;;;2.10;99.90;;;1.97;86.87;99700.59;4964412;28;20219;-65
2022/12/10 05:24:36;;;;;;;13.82;7.88;;;2.10;99.90;;;1.99;87.69;99704.75;4951013;28;20262;-65
2022/12/10 05:27:04;;;;;;;19.77;9.25;;;2.10;99.90;;;2.08;87.00;99708.59;4958288;28;20686;-65
2022/12/10 05:29:32;;;;;;;10.52;4.93;;;2.10;99.90;;;2.05;86.70;99707.00;4963447;28;20609;-66
2022/12/10 05:31:59;;;;;;;12.73;7.90;;;2.20;99.90;;;2.06;86.92;99721.56;4951305;28;20204;-65
2022/12/10 05:34:26;;;;;;;12.50;7.38;;;2.20;99.90;;;2.05;85.75;99712.16;4965990;28;20216;-65
2022/12/10 05:36:53;;;;;;;16.00;8.15;;;2.20;99.90;;;2.19;85.53;99721.75;4964362;28;20866;-65
2022/12/10 05:39:20;;;;;;;8.00;3.58;;;2.20;99.90;;;2.14;85.36;99726.28;4955840;28;20223;-65
2022/12/10 05:41:47;;;;;;;16.00;10.32;;;2.20;99.90;;;2.12;85.83;99717.81;4960989;28;20282;-64
2022/12/10 05:44:13;;;;;;;13.82;8.35;;;2.20;99.90;;;2.20;85.17;99723.38;4952938;28;20282;-65
2022/12/10 05:46:41;;;;;;;12.80;6.55;;;2.20;99.90;;;2.05;85.71;99721.59;4958433;28;20230;-65
2022/12/10 05:49:08;;;;;;;14.27;8.05;;;2.20;99.90;;;2.03;85.91;99729.41;4969568;28;20211;-66
2022/12/10 05:51:37;;;;;;;10.88;6.47;;;2.10;99.90;;;2.14;85.06;99729.69;4969615;28;20208;-65
2022/12/10 05:54:06;;;;;;;8.93;5.82;;;2.20;99.90;;;2.14;84.77;99729.69;4953544;28;20205;-65
2022/12/10 05:56:34;;;;;;;9.68;5.35;;;2.20;99.90;;;2.09;84.97;99731.66;4950914;28;20216;-65
2022/12/10 05:59:03;;;;;;;9.75;5.05;;;2.20;99.90;;;2.31;84.75;99731.38;4965041;28;20208;-65
2022/12/10 06:01:33;;;;;;;12.60;7.05;;;2.30;99.90;;;2.25;84.90;99726.56;4953906;28;20215;-66
2022/12/10 06:04:02;;;;;;;11.82;7.03;;;2.30;99.90;;;2.22;84.87;99732.69;4957821;28;20203;-64
2022/12/10 06:06:36;;;;;;;11.30;5.95;;;2.30;99.90;;;2.18;85.76;99736.34;4977248;28;20200;-64
2022/12/10 06:09:04;;;;;;;10.55;5.65;;;2.30;99.90;;;2.10;85.44;99737.66;4967334;28;20203;-65
2022/12/10 06:11:31;;;;;;;10.43;5.35;;;2.30;99.90;;;2.17;85.51;99742.38;4962884;28;20580;-64
2022/12/10 06:13:59;;;;;;;9.65;4.80;;;2.30;99.90;;;2.21;85.21;99740.50;4965432;28;20218;-66
2022/12/10 06:16:27;;;;;;;12.40;6.55;;;2.30;99.90;;;2.19;84.58;99744.91;4974934;28;20196;-65
2022/12/10 06:18:55;;;;;;;11.20;6.07;;;2.30;99.90;;;2.20;84.54;99754.28;5002459;28;20469;-64
2022/12/10 06:21:22;;;;;;;11.15;5.97;;;2.20;99.90;;;2.18;84.81;99750.94;4965896;28;20221;-65
2022/12/10 06:23:52;;;;;;;11.02;6.38;;;2.20;99.90;;;2.22;84.75;99757.59;4980436;28;20206;-65
2022/12/10 06:26:23;;;;;;;3.05;1.90;;;2.20;99.90;;;2.18;84.58;99756.09;4979819;28;20208;-65
2022/12/10 06:28:53;;;;;;;9.35;5.72;;;2.20;99.90;;;2.18;84.60;99751.78;4959297;28;20213;-66
2022/12/10 06:31:20;;;;;;;9.57;4.95;;;2.20;99.90;;;2.19;84.55;99755.19;4953779;28;20274;-65
2022/12/10 06:33:47;;;;;;;11.65;7.47;;;2.20;99.90;;;2.00;84.79;99754.47;4953358;28;20287;-64
2022/12/10 06:36:16;;;;;;;13.52;10.25;;;2.20;99.90;;;1.97;84.87;99752.88;4979573;28;20205;-64
2022/12/10 06:38:43;;;;;;;10.27;6.47;;;2.10;99.90;;;2.04;84.72;99763.69;4963902;28;20208;-65
2022/12/10 06:41:13;;;;;;;9.88;5.07;;;2.10;99.90;;;1.89;84.82;99769.63;4986229;28;20226;-64
2022/12/10 06:43:40;;;;;;;9.80;6.90;;;2.10;99.90;;;1.83;85.44;99768.16;4966791;28;20620;-65
2022/12/10 06:46:13;;;;;;;10.55;6.57;;;2.10;99.90;;;1.92;84.87;99777.16;4974464;28;20568;-65
2022/12/10 06:48:41;;;;;;;7.90;5.63;;;2.00;99.90;;;2.05;83.64;99776.47;4972447;28;20208;-64
2022/12/10 06:51:09;;;;;;;6.22;4.63;;;2.10;99.90;;;1.94;84.42;99776.19;4978876;28;20261;-65
2022/12/10 06:53:37;;;;;;;13.30;6.45;;;2.00;99.90;;;1.83;84.46;99780.22;4991782;28;20233;-65
2022/12/10 06:56:06;;;;;;;10.93;6.63;;;2.00;99.90;;;1.96;84.46;99784.66;4961977;28;20686;-65
2022/12/10 06:58:35;;;;;;;10.93;5.95;;;2.00;99.90;;;1.83;84.19;99786.16;4954088;28;20263;-65
2022/12/10 07:01:08;;;;;;;8.13;5.55;;;2.00;99.90;;;1.93;83.74;99781.41;4956705;28;20283;-64
2022/12/10 07:03:35;;;;;;;5.97;4.15;;;2.00;99.90;;;1.98;83.70;99776.88;4962618;28;20207;-66
2022/12/10 07:06:05;;;;;;;9.15;5.63;;;2.00;99.90;;;1.98;83.41;99789.75;4963122;28;20566;-65
2022/12/10 07:08:32;;;;;;;6.32;4.10;;;2.00;99.90;;;1.84;83.40;99777.56;4960779;28;20206;-65
2022/12/10 07:10:58;;;;;;;4.53;3.35;;;2.00;99.90;;;1.81;83.35;99777.69;4973626;28;20223;-66
2022/12/10 07:13:25;;;;;;;7.70;4.63;;;2.00;99.90;;;1.85;83.54;99778.38;4971454;28;20205;-67
2022/12/10 07:15:56;;;;;;;6.30;4.00;;;2.00;99.90;;;1.89;83.51;99788.47;4962631;28;20287;-65
2022/12/10 07:18:24;;;;;;;7.38;3.20;;;2.00;99.90;;;1.94;82.77;99788.22;4966015;28;20208;-65
2022/12/10 07:20:51;;;;;;;9.88;5.28;;;2.00;99.90;;;1.93;82.70;99792.53;4970808;28;20235;-66
2022/12/10 07:23:19;;;;;;;8.48;4.47;;;2.00;99.90;;;2.00;82.90;99790.50;4973127;28;20208;-65
2022/12/10 07:25:46;;;;;;;6.03;4.50;;;2.00;99.90;;;1.92;83.80;99793.44;4956252;28;20205;-67
2022/12/10 07:28:13;;;;;;;8.02;5.07;;;2.00;99.90;;;1.90;83.78;99797.81;4966766;28;20196;-66
2022/12/10 07:30:40;;;;;;;9.70;5.60;;;2.00;99.90;;;1.98;83.50;99800.84;4961416;28;20263;-67
2022/12/10 07:33:07;;;;;;;8.50;5.70;;;2.00;99.90;;;1.92;83.19;99805.44;4973953;28;20209;-66
2022/12/10 07:35:34;;;;;;;6.60;1.23;;;2.00;99.90;;;2.07;82.62;99808.09;4962211;28;20208;-66
2022/12/10 07:38:01;;;;;;;6.28;3.92;;;2.10;99.90;;;2.03;82.75;99804.03;4971438;28;20215;-65
2022/12/10 07:40:27;;;;;;;9.82;4.97;;;2.10;99.90;;;1.91;83.69;99816.66;4963666;28;20284;-66
2022/12/10 07:42:54;;;;;;;9.77;5.70;;;2.00;99.90;;;1.93;83.77;99820.84;4971829;28;20212;-65
2022/12/10 07:45:21;;;;;;;9.65;6.75;;;2.00;99.90;;;1.86;84.28;99818.63;4961866;28;20196;-65
2022/12/10 07:47:48;;;;;;;9.63;5.68;;;2.00;99.90;;;2.05;83.73;99824.53;4968926;28;20221;-67
2022/12/10 07:50:15;;;;;;;11.07;7.65;;;2.00;99.90;;;2.11;83.61;99834.50;4969307;28;20263;-66
2022/12/10 07:52:42;;;;;;;11.93;8.60;;;2.10;99.90;;;2.05;82.74;99827.09;4959088;28;20818;-65
2022/12/10 07:55:09;;;;;;;9.07;4.78;;;2.10;99.90;;;2.13;82.57;99830.13;4954755;28;20211;-65
2022/12/10 07:57:35;;;;;;;10.38;6.38;;;2.20;99.90;;;2.16;82.49;99833.38;4963354;28;20196;-66
2022/12/10 08:00:04;;;;;;;10.35;5.97;;;2.10;99.90;;;2.16;82.15;99845.41;4965596;28;20227;-66
2022/12/10 08:02:31;;;;;;;8.35;5.00;;;2.20;99.90;;;2.17;82.73;99839.38;4955233;28;20208;-65
2022/12/10 08:04:57;;;;;;;11.07;7.15;;;2.20;99.90;;;2.26;82.07;99834.56;4963818;28;20745;-65
2022/12/10 08:07:24;;;;;;;7.25;4.78;;;2.20;99.90;;;2.20;81.26;99836.63;4955878;28;20216;-67
2022/12/10 08:09:51;;;;;;;11.40;7.85;;;2.30;99.90;;;2.16;81.92;99835.13;4952864;28;20228;-66
2022/12/10 08:12:18;;;;;;;14.18;6.45;;;2.30;99.90;;;2.10;82.58;99846.56;4955992;28;20275;-65
2022/12/10 08:14:46;;;;;;;14.77;7.75;;;2.20;99.90;;;2.19;81.66;99840.13;4970872;28;20673;-65
2022/12/10 08:17:13;;;;;;;9.80;7.22;;;2.30;99.90;;;2.36;81.80;99840.09;4974499;28;20677;-66
2022/12/10 08:19:40;;;;;;;10.18;6.00;;;2.30;99.90;;;2.19;81.78;99846.06;4965014;28;20299;-65
2022/12/10 08:22:10;;;;;;;11.95;6.63;;;2.30;99.90;;;2.12;81.95;99852.47;4962668;28;20228;-65
2022/12/10 08:24:37;;;;;;;8.75;5.50;;;2.30;99.90;;;2.35;81.15;99851.28;4955703;28;20248;-66
2022/12/10 08:27:04;;;;;;;12.52;7.40;;;2.30;99.90;;;2.51;81.02;99847.03;4973039;28;20201;-66
2022/12/10 08:29:32;;;;;;;10.90;7.25;;;2.40;99.90;;;2.25;81.78;99852.69;4971489;28;20720;-65
2022/12/10 08:31:59;;;;;;;9.77;5.38;;;2.40;99.90;;;2.38;81.47;99849.38;4973164;28;20597;-65
2022/12/10 08:34:26;;;;;;;10.48;7.03;;;2.40;99.90;;;2.51;80.73;99848.78;4970446;28;20204;-65
2022/12/10 08:36:52;;;;;;;15.35;6.13;;;2.50;99.90;;;2.65;80.41;99854.88;4964631;28;20275;-64
2022/12/10 08:39:19;;;;;;;9.15;5.28;;;2.50;99.90;;;2.73;80.10;99857.03;4962691;28;20684;-64
2022/12/10 08:41:46;;;;;;;10.82;6.25;;;2.60;99.90;;;2.85;79.71;99848.69;4970528;28;20259;-64
2022/12/10 08:44:14;;;;;;;10.43;6.05;;;2.70;99.90;;;2.72;79.44;99865.69;4969827;28;20698;-64
2022/12/10 08:46:41;;;;;;;11.93;5.78;;;2.70;99.90;;;2.76;79.41;99865.47;4986482;28;20195;-64
2022/12/10 08:49:08;;;;;;;9.90;5.95;;;2.70;99.90;;;2.59;80.76;99860.34;4957190;28;20197;-64
2022/12/10 08:51:36;;;;;;;10.07;6.35;;;2.70;99.90;;;2.82;79.15;99861.72;4959068;28;20205;-65
2022/12/10 08:54:03;;;;;;;9.85;6.10;;;2.70;99.90;;;2.86;78.53;99870.94;4964605;28;20212;-64
2022/12/10 08:56:30;;;;;;;6.57;5.00;;;2.80;99.90;;;3.17;78.13;99875.31;4960802;28;20205;-65
2022/12/10 08:58:57;;;;;;;10.55;6.80;;;2.90;99.90;;;3.17;77.08;99867.59;4963345;28;20873;-64
2022/12/10 09:01:24;;;;;;;9.65;6.80;;;3.00;99.90;;;3.18;77.19;99864.94;4961883;28;20228;-65
2022/12/10 09:03:51;;;;;;;10.50;7.18;;;3.00;99.90;;;3.25;77.07;99875.75;4959136;28;20204;-65
2022/12/10 09:06:21;;;;;;;8.95;6.18;;;3.10;99.90;;;3.30;75.73;99853.94;4956732;28;20784;-64
2022/12/10 09:08:48;;;;;;;9.32;7.18;;;3.10;99.90;;;2.82;78.05;99875.44;4967183;28;20209;-64
2022/12/10 09:11:21;;;;;;;9.75;8.30;;;3.00;99.90;;;2.95;77.08;99873.06;4963932;28;20252;-64
2022/12/10 09:13:48;;;;;;;12.30;8.32;;;2.90;99.90;;;2.86;77.30;99871.78;4947292;28;20219;-64
2022/12/10 09:16:15;;;;;;;9.07;6.68;;;2.90;99.90;;;2.85;77.65;99872.72;4967857;28;20320;-63
2022/12/10 09:18:43;;;;;;;8.55;6.70;;;2.90;99.90;;;3.05;76.71;99875.06;4967989;28;20739;-64
2022/12/10 09:21:14;;;;;;;12.15;6.45;;;3.00;99.90;;;2.76;78.04;99875.78;4961316;28;20228;-64
2022/12/10 09:23:42;;;;;;;7.93;4.78;;;2.90;99.90;;;3.01;77.08;99873.56;4960591;28;20208;-64
2022/12/10 09:26:12;;;;;;;9.88;6.22;;;3.00;99.90;;;3.02;76.57;99880.38;4968687;28;20208;-62
2022/12/10 09:28:40;;;;;;;10.00;7.75;;;3.00;99.90;;;2.94;76.39;99864.47;4963658;28;20883;-64
2022/12/10 09:31:09;;;;;;;9.38;6.95;;;3.10;99.90;;;3.17;74.74;99879.56;4964660;28;20232;-64
2022/12/10 09:33:43;;;;;;;6.55;4.50;;;3.20;99.90;;;3.50;74.04;99883.81;4955073;28;20204;-64
2022/12/10 09:36:12;;;;;;;8.85;5.95;;;3.30;99.90;;;3.80;73.25;99879.53;4953863;28;20215;-64
2022/12/10 09:38:43;;;;;;;7.97;5.38;;;3.50;99.90;;;3.37;74.22;99875.91;4960017;28;20591;-64
2022/12/10 09:41:50;;;;;;;7.47;5.30;;;3.50;99.90;;;3.83;73.30;99874.22;4960757;28;20779;-64
2022/12/10 09:45:00;;;;;;;7.97;5.90;;;3.60;99.90;;;3.87;72.37;99881.69;4980453;28;20204;-63
2022/12/10 09:47:37;;;;;;;8.18;5.35;;;3.70;99.90;;;3.76;72.16;99870.31;4956120;28;20248;-64
2022/12/10 09:50:36;;;;;;;8.60;6.07;;;3.70;99.90;;;3.74;73.12;99875.56;4964062;28;20219;-64
2022/12/10 09:53:04;;;;;;;11.32;6.35;;;3.70;99.90;;;2.95;76.38;99881.63;4974228;28;20578;-64
2022/12/10 09:55:43;;;;;;;8.25;5.45;;;3.40;99.90;;;3.30;74.33;99878.91;4967941;28;20200;-63
2022/12/10 09:58:20;;;;;;;8.25;6.10;;;3.30;99.90;;;3.67;73.72;99874.22;4958752;28;20209;-63
2022/12/10 10:01:05;;;;;;;6.32;3.90;;;3.40;99.90;;;4.24;72.34;99880.41;4961207;28;20228;-64
2022/12/10 10:03:38;;;;;;;7.10;5.45;;;3.70;99.90;;;4.47;70.81;99877.31;4973699;28;20201;-64
2022/12/10 10:06:06;;;;;;;8.70;5.38;;;4.00;99.90;;;4.86;69.25;99881.88;4966786;28;20239;-64
2022/12/10 10:08:46;;;;;;;6.03;4.13;;;4.20;99.90;;;4.83;68.10;99874.31;4967601;28;20211;-64
2022/12/10 10:11:19;;;;;;;8.18;6.88;;;4.40;99.90;;;4.58;68.96;99869.75;4958241;28;20228;-64
2022/12/10 10:14:03;;;;;;;9.70;6.10;;;4.50;99.90;;;4.83;68.96;99876.06;4955690;28;20198;-64
2022/12/10 10:16:46;;;;;;;9.68;6.63;;;4.40;99.90;;;4.82;68.69;99880.38;4963402;28;20202;-64
2022/12/10 10:19:25;;;;;;;7.90;5.03;;;4.50;99.90;;;4.69;69.25;99877.72;4953912;28;20772;-64
2022/12/10 10:21:52;;;;;;;7.90;4.93;;;4.40;99.90;;;4.74;69.73;99877.44;4956115;28;20276;-62
2022/12/10 10:24:23;;;;;;;6.18;4.25;;;4.40;99.90;;;4.87;68.97;99888.72;4960764;28;20218;-63
2022/12/10 10:26:57;;;;;;;6.88;4.95;;;4.50;99.90;;;5.08;69.08;99886.56;4956627;28;20202;-64
2022/12/10 10:29:26;;;;;;;5.50;4.43;;;4.60;99.90;;;5.36;67.91;99881.38;4964485;28;20711;-65
2022/12/10 10:32:13;;;;;;;3.63;3.17;;;4.70;99.90;;;5.44;67.53;99894.66;4972853;28;20208;-64
2022/12/10 10:34:40;;;;;;;7.93;5.00;;;4.80;99.90;;;5.47;67.13;99882.34;4965497;28;20602;-64
2022/12/10 10:37:25;;;;;;;7.95;5.30;;;4.90;99.90;;;5.40;67.67;99885.41;4955592;28;20212;-66
2022/12/10 10:39:52;;;;;;;8.93;5.15;;;5.00;99.90;;;5.32;67.87;99891.06;4970252;28;20322;-64
2022/12/10 10:42:35;;;;;;;7.82;4.93;;;5.00;99.90;;;5.49;67.48;99893.41;4953949;28;20235;-64
2022/12/10 10:45:30;;;;;;;10.15;5.88;;;5.00;99.90;;;5.68;67.59;99895.69;4967391;28;20210;-64
2022/12/10 10:48:21;;;;;;;6.68;3.85;;;5.10;99.90;;;5.67;66.97;99891.44;4962912;28;20200;-64
2022/12/10 10:51:11;;;;;;;9.50;6.32;;;5.10;99.90;;;4.89;69.92;99892.03;4956980;28;20235;-64
2022/12/10 10:53:38;;;;;;;9.57;5.65;;;4.90;99.90;;;5.11;68.58;99899.31;4955215;28;20265;-64
2022/12/10 10:56:18;;;;;;;7.60;5.40;;;4.90;99.90;;;4.83;69.47;99899.31;4974331;28;20230;-64